Terminal Aerodrome Forecast
Issued by NWS

Home | Current Version | Previous Version | Text Only | Print | Product List | Glossary On
Versions: 1 2 3 4 5 6 7 8 9 10 11 12 13 14 15 16 17 18
000
FTUS46 KEKA 020542
TAFCEC
TAF
KCEC 020542Z 0206/0306 VRB02KT 6SM BR BKN035 OVC150
      TEMPO 0210/0214 5SM BR BKN015 OVC035
     FM021700 30009KT P6SM SCT003 BKN025 OVC050=

USA.gov is the U.S. government's official web portal to all federal, state and local government web resources and services.